Time;durP1;ratioP1;P1;durP2;ratioP2;P2;SDS_P1;SDS_P2;PMS_P1;PMS_P2;Temp;Humidity;BMP_temperature;BMP_pressure;BME280_temperature;BME280_humidity;BME280_pressure;Samples;Min_cycle;Max_cycle;Signal;HPM_P1;HPM_P2
2022/03/13 00:02:17;;;;;;;;;;;10.00;74.40;;;;;;4914126;29;19982;-52
2022/03/13 00:04:44;;;;;;;;;;;9.80;76.40;;;;;;4915109;29;20003;-52
2022/03/13 00:07:17;;;;;;;;;;;9.80;75.70;;;;;;4914273;29;20311;-53
2022/03/13 00:09:45;;;;;;;;;;;9.80;75.60;;;;;;4915034;29;19947;-53
2022/03/13 00:12:14;;;;;;;;;;;9.40;76.50;;;;;;4915034;29;19928;-52
2022/03/13 00:14:44;;;;;;;;;;;9.10;76.80;;;;;;4913623;29;19935;-52
2022/03/13 00:17:11;;;;;;;;;;;9.40;77.30;;;;;;4914752;29;19994;-52
2022/03/13 00:19:38;;;;;;;;;;;9.40;75.90;;;;;;4914930;29;19927;-52
2022/03/13 00:22:05;;;;;;;;;;;9.60;74.60;;;;;;4914885;29;19974;-54
2022/03/13 00:24:32;;;;;;;;;;;9.10;74.80;;;;;;4914098;29;20047;-52
2022/03/13 00:27:00;;;;;;;;;;;9.50;75.10;;;;;;4914652;29;19937;-52
2022/03/13 00:29:27;;;;;;;;;;;9.50;74.60;;;;;;4915121;29;19946;-52
2022/03/13 00:31:55;;;;;;;;;;;9.60;75.40;;;;;;4914160;29;19927;-54
2022/03/13 00:34:22;;;;;;;;;;;8.90;76.50;;;;;;4920958;29;19935;-52
2022/03/13 00:36:49;;;;;;;;;;;8.90;76.70;;;;;;4912187;29;19972;-53
2022/03/13 00:39:16;;;;;;;;;;;8.90;77.80;;;;;;4913305;29;20242;-52
2022/03/13 00:41:44;;;;;;;;;;;8.80;78.30;;;;;;4914862;29;19927;-53
2022/03/13 00:44:11;;;;;;;;;;;8.00;83.60;;;;;;4914437;29;20423;-52
2022/03/13 00:46:37;;;;;;;;;;;7.80;84.40;;;;;;4915065;29;19927;-52
2022/03/13 00:49:06;;;;;;;;;;;7.40;89.50;;;;;;4910155;29;19998;-52
2022/03/13 00:51:33;;;;;;;;;;;7.20;91.30;;;;;;4896267;29;19984;-52
2022/03/13 00:54:00;;;;;;;;;;;7.30;92.70;;;;;;4896124;29;19982;-52
2022/03/13 00:56:26;;;;;;;;;;;8.00;93.10;;;;;;4896231;29;19935;-51
2022/03/13 00:58:53;;;;;;;;;;;7.80;93.10;;;;;;4900912;29;20380;-52
2022/03/13 01:01:20;;;;;;;;;;;7.10;94.10;;;;;;4905350;29;19931;-52
2022/03/13 01:03:48;;;;;;;;;;;6.90;94.40;;;;;;4927558;23;20367;-49
2022/03/13 01:06:17;;;;;;;;;;;6.70;94.90;;;;;;4954840;28;20025;-49
2022/03/13 01:08:44;;;;;;;;;;;6.80;95.40;;;;;;4963297;28;19926;-49
2022/03/13 01:11:11;;;;;;;;;;;7.10;95.40;;;;;;4973891;28;19926;-49
2022/03/13 01:13:38;;;;;;;;;;;7.00;95.90;;;;;;4964749;28;19927;-49
2022/03/13 01:16:11;;;;;;;;;;;7.00;96.20;;;;;;4954738;29;20373;-48
2022/03/13 01:18:40;;;;;;;;;;;6.90;96.40;;;;;;4954762;28;19933;-48
2022/03/13 01:21:06;;;;;;;;;;;6.90;96.60;;;;;;4954332;29;19954;-48
2022/03/13 01:23:39;;;;;;;;;;;6.30;96.90;;;;;;4954585;29;20421;-48
2022/03/13 01:26:34;;;;;;;;;;;6.50;97.40;;;;;;4954231;29;20280;-49
2022/03/13 01:29:02;;;;;;;;;;;6.70;97.20;;;;;;4954483;29;19981;-48
2022/03/13 01:31:29;;;;;;;;;;;6.50;97.20;;;;;;4954189;29;20398;-49
2022/03/13 01:33:56;;;;;;;;;;;5.90;98.20;;;;;;4955071;28;19927;-49
2022/03/13 01:36:24;;;;;;;;;;;6.40;97.70;;;;;;4953748;29;20449;-49
2022/03/13 01:38:53;;;;;;;;;;;6.50;97.00;;;;;;4951817;28;20363;-49
2022/03/13 01:41:20;;;;;;;;;;;6.10;97.50;;;;;;4954392;29;19926;-49
2022/03/13 01:43:48;;;;;;;;;;;6.00;97.40;;;;;;4954067;29;19939;-49
2022/03/13 01:46:15;;;;;;;;;;;6.10;97.40;;;;;;4953890;28;19933;-49
2022/03/13 01:48:51;;;;;;;;;;;5.70;97.90;;;;;;4955331;28;19938;-49
2022/03/13 01:51:18;;;;;;;;;;;5.50;98.20;;;;;;4972605;28;19930;-48
2022/03/13 01:53:45;;;;;;;;;;;5.60;97.90;;;;;;4953495;29;19973;-48
2022/03/13 01:56:13;;;;;;;;;;;5.50;98.00;;;;;;4953855;28;19951;-48
2022/03/13 01:58:40;;;;;;;;;;;5.50;98.10;;;;;;4953779;28;20402;-48
2022/03/13 02:01:08;;;;;;;;;;;5.30;97.70;;;;;;4953304;29;19927;-49
2022/03/13 02:03:35;;;;;;;;;;;5.10;98.00;;;;;;4952136;28;19926;-48
2022/03/13 02:06:02;;;;;;;;;;;5.20;98.30;;;;;;4953420;28;19989;-49
2022/03/13 02:08:31;;;;;;;;;;;5.60;98.20;;;;;;4953169;28;19927;-49
2022/03/13 02:10:59;;;;;;;;;;;5.40;96.40;;;;;;4953514;28;20367;-48
2022/03/13 02:13:28;;;;;;;;;;;5.00;98.50;;;;;;4952691;28;19930;-49
2022/03/13 02:15:56;;;;;;;;;;;5.00;98.70;;;;;;4952875;29;19927;-49
2022/03/13 02:18:23;;;;;;;;;;;5.20;98.60;;;;;;4957694;28;19930;-49
2022/03/13 02:20:49;;;;;;;;;;;4.90;98.60;;;;;;4953145;29;20363;-49
2022/03/13 02:23:20;;;;;;;;;;;5.00;98.80;;;;;;4971435;28;20047;-49
2022/03/13 02:25:48;;;;;;;;;;;4.80;98.50;;;;;;4972811;28;19981;-49
2022/03/13 02:28:15;;;;;;;;;;;4.80;99.20;;;;;;4966305;28;20458;-48
2022/03/13 02:30:42;;;;;;;;;;;4.70;99.20;;;;;;4952957;29;19933;-49
2022/03/13 02:33:08;;;;;;;;;;;5.10;99.90;;;;;;4954254;28;19989;-48
2022/03/13 02:35:35;;;;;;;;;;;4.50;99.50;;;;;;4953189;28;19981;-48
2022/03/13 02:38:02;;;;;;;;;;;4.80;99.90;;;;;;4953420;29;20006;-49
2022/03/13 02:40:30;;;;;;;;;;;4.20;99.90;;;;;;4952808;29;19938;-49
2022/03/13 02:42:58;;;;;;;;;;;5.20;99.90;;;;;;4953349;29;19926;-49
2022/03/13 02:45:29;;;;;;;;;;;4.10;99.90;;;;;;4952168;28;19927;-49
2022/03/13 02:47:56;;;;;;;;;;;4.20;99.90;;;;;;4949368;28;20398;-49
2022/03/13 02:50:23;;;;;;;;;;;4.70;99.90;;;;;;4953163;29;19926;-49
2022/03/13 02:52:50;;;;;;;;;;;4.00;99.90;;;;;;4952989;29;20029;-49
2022/03/13 02:55:17;;;;;;;;;;;4.00;99.90;;;;;;4953190;29;19982;-49
2022/03/13 02:57:45;;;;;;;;;;;4.00;99.90;;;;;;4953228;29;19934;-48
2022/03/13 03:00:12;;;;;;;;;;;4.60;99.90;;;;;;4952705;29;19927;-48
2022/03/13 03:02:39;;;;;;;;;;;4.20;99.90;;;;;;4956982;28;20390;-49
2022/03/13 03:05:06;;;;;;;;;;;4.10;99.90;;;;;;4951844;28;19930;-49
2022/03/13 03:07:34;;;;;;;;;;;4.00;99.90;;;;;;4952520;29;20387;-49
2022/03/13 03:10:01;;;;;;;;;;;4.60;99.90;;;;;;4952941;28;19931;-49
2022/03/13 03:12:28;;;;;;;;;;;4.30;99.90;;;;;;4952939;28;20457;-48
2022/03/13 03:14:56;;;;;;;;;;;4.30;99.90;;;;;;4952627;28;19933;-48
2022/03/13 03:17:23;;;;;;;;;;;4.50;99.90;;;;;;4951752;28;19927;-49
2022/03/13 03:19:50;;;;;;;;;;;4.30;99.90;;;;;;4952789;28;19927;-49
2022/03/13 03:22:16;;;;;;;;;;;4.30;99.90;;;;;;4956185;28;20354;-48
2022/03/13 03:24:43;;;;;;;;;;;4.50;99.90;;;;;;4955405;28;19974;-49
2022/03/13 03:27:10;;;;;;;;;;;4.70;99.90;;;;;;4951661;29;20331;-49
2022/03/13 03:29:36;;;;;;;;;;;4.90;99.90;;;;;;4959533;28;19930;-49
2022/03/13 03:32:05;;;;;;;;;;;4.40;99.90;;;;;;4959396;28;19931;-49
2022/03/13 03:34:32;;;;;;;;;;;4.00;99.90;;;;;;4956046;28;20461;-49
2022/03/13 03:36:59;;;;;;;;;;;4.00;99.90;;;;;;4955378;29;20460;-49
2022/03/13 03:39:27;;;;;;;;;;;3.60;99.90;;;;;;4957257;28;20302;-49
2022/03/13 03:41:55;;;;;;;;;;;3.70;99.90;;;;;;4955297;28;19931;-48
2022/03/13 03:44:22;;;;;;;;;;;3.60;99.90;;;;;;4953925;28;20212;-49
2022/03/13 03:46:49;;;;;;;;;;;3.50;99.90;;;;;;4955099;28;19973;-49
2022/03/13 03:49:17;;;;;;;;;;;4.50;99.90;;;;;;4955634;29;19975;-49
2022/03/13 03:51:44;;;;;;;;;;;3.50;99.90;;;;;;4955861;28;19982;-49
2022/03/13 03:54:11;;;;;;;;;;;;;;;;;;4955020;28;19933;-48
2022/03/13 03:56:38;;;;;;;;;;;3.50;99.90;;;;;;4955367;28;20358;-49
2022/03/13 03:59:05;;;;;;;;;;;3.70;99.90;;;;;;4954977;28;19985;-49
2022/03/13 04:01:36;;;;;;;;;;;3.90;99.90;;;;;;4955461;28;19985;-49
2022/03/13 04:04:03;;;;;;;;;;;;;;;;;;4954811;28;20302;-49
2022/03/13 04:06:33;;;;;;;;;;;3.90;99.90;;;;;;4956780;28;19930;-49
2022/03/13 04:09:00;;;;;;;;;;;3.80;99.90;;;;;;4951866;29;19933;-49
2022/03/13 04:11:26;;;;;;;;;;;3.60;99.90;;;;;;4955151;28;19934;-49
2022/03/13 04:13:54;;;;;;;;;;;;;;;;;;4954760;28;19933;-49
2022/03/13 04:16:20;;;;;;;;;;;3.50;99.90;;;;;;4955180;28;19926;-49
2022/03/13 04:18:47;;;;;;;;;;;3.60;99.90;;;;;;4955054;29;19941;-49
2022/03/13 04:21:15;;;;;;;;;;;3.50;99.90;;;;;;4955040;28;20033;-49
2022/03/13 04:23:43;;;;;;;;;;;3.40;99.90;;;;;;4954624;29;19985;-48
2022/03/13 04:26:10;;;;;;;;;;;3.70;99.90;;;;;;4955035;28;19941;-48
2022/03/13 04:28:36;;;;;;;;;;;3.60;99.90;;;;;;4956457;28;20239;-49
2022/03/13 04:31:05;;;;;;;;;;;4.60;99.90;;;;;;4954964;28;19927;-49
2022/03/13 04:33:33;;;;;;;;;;;3.70;99.90;;;;;;4953654;28;19927;-48
2022/03/13 04:36:00;;;;;;;;;;;;;;;;;;4955929;28;19934;-49
2022/03/13 04:38:27;;;;;;;;;;;4.50;99.90;;;;;;4953024;28;20430;-49
2022/03/13 04:40:56;;;;;;;;;;;4.30;99.90;;;;;;4954330;29;19950;-49
2022/03/13 04:43:27;;;;;;;;;;;3.60;99.90;;;;;;4954250;29;20101;-49
2022/03/13 04:45:54;;;;;;;;;;;3.60;99.90;;;;;;4953900;28;20323;-49
2022/03/13 04:48:21;;;;;;;;;;;3.20;99.90;;;;;;4954437;28;19926;-49
2022/03/13 04:50:47;;;;;;;;;;;3.40;99.90;;;;;;4954334;28;19942;-49
2022/03/13 04:53:14;;;;;;;;;;;3.40;99.90;;;;;;4953739;28;19934;-49
2022/03/13 04:55:42;;;;;;;;;;;3.40;99.90;;;;;;4953661;28;20395;-49
2022/03/13 04:58:10;;;;;;;;;;;3.80;99.90;;;;;;4953278;28;19970;-49
2022/03/13 05:00:38;;;;;;;;;;;3.70;99.90;;;;;;4953669;28;19927;-49
2022/03/13 05:03:06;;;;;;;;;;;4.70;99.90;;;;;;4954122;28;19942;-49
2022/03/13 05:05:34;;;;;;;;;;;;;;;;;;4955040;28;19977;-49
2022/03/13 05:08:01;;;;;;;;;;;;;;;;;;4954087;28;19981;-49
2022/03/13 05:10:36;;;;;;;;;;;3.80;99.90;;;;;;4954117;28;19926;-49
2022/03/13 05:13:04;;;;;;;;;;;3.30;99.90;;;;;;4953873;29;19930;-49
2022/03/13 05:15:32;;;;;;;;;;;3.20;99.90;;;;;;4953151;28;19930;-49
2022/03/13 05:17:59;;;;;;;;;;;4.30;99.90;;;;;;4953698;28;20441;-49
2022/03/13 05:20:27;;;;;;;;;;;3.30;99.90;;;;;;4953337;28;20452;-48
2022/03/13 05:22:55;;;;;;;;;;;3.40;99.90;;;;;;4953798;28;19931;-49
2022/03/13 05:25:23;;;;;;;;;;;4.00;99.90;;;;;;4953463;28;20029;-51
2022/03/13 05:27:50;;;;;;;;;;;;;;;;;;4953837;28;19954;-49
2022/03/13 05:30:17;;;;;;;;;;;4.20;99.90;;;;;;4953570;28;19989;-49
2022/03/13 05:32:45;;;;;;;;;;;4.10;99.90;;;;;;4953585;28;19926;-49
2022/03/13 05:35:12;;;;;;;;;;;4.20;99.90;;;;;;4957217;28;20474;-49
2022/03/13 05:37:39;;;;;;;;;;;4.10;99.90;;;;;;4954427;29;19985;-48
2022/03/13 05:40:07;;;;;;;;;;;4.20;99.90;;;;;;4953625;29;19927;-49
2022/03/13 05:42:34;;;;;;;;;;;3.90;99.90;;;;;;4961214;28;19926;-49
2022/03/13 05:45:00;;;;;;;;;;;3.20;99.90;;;;;;4970686;28;19980;-48
2022/03/13 05:47:27;;;;;;;;;;;4.80;99.90;;;;;;4953778;29;19938;-49
2022/03/13 05:49:55;;;;;;;;;;;4.00;99.90;;;;;;4958404;28;20045;-49
2022/03/13 05:52:22;;;;;;;;;;;3.40;99.90;;;;;;4953789;29;19926;-48
2022/03/13 05:54:49;;;;;;;;;;;3.00;99.90;;;;;;4953403;29;19934;-48
2022/03/13 05:57:15;;;;;;;;;;;4.30;99.90;;;;;;4953663;29;20350;-49
2022/03/13 05:59:42;;;;;;;;;;;0.90;99.90;;;;;;4953548;29;19981;-49
2022/03/13 06:02:09;;;;;;;;;;;3.80;99.90;;;;;;4953350;29;19930;-49
2022/03/13 06:04:36;;;;;;;;;;;3.50;99.90;;;;;;4954310;28;19989;-49
2022/03/13 06:07:04;;;;;;;;;;;3.90;99.90;;;;;;4950761;28;19934;-49
2022/03/13 06:09:31;;;;;;;;;;;4.20;99.90;;;;;;4953510;28;19930;-49
2022/03/13 06:11:58;;;;;;;;;;;4.30;99.90;;;;;;4953061;29;19989;-49
2022/03/13 06:14:25;;;;;;;;;;;4.20;99.90;;;;;;4953122;29;19931;-49
2022/03/13 06:16:52;;;;;;;;;;;4.10;99.90;;;;;;4956967;28;19985;-48
2022/03/13 06:19:19;;;;;;;;;;;4.00;99.90;;;;;;4953417;29;20355;-49
2022/03/13 06:21:47;;;;;;;;;;;4.60;99.90;;;;;;4953221;28;19933;-48
2022/03/13 06:24:16;;;;;;;;;;;4.50;99.90;;;;;;4953225;28;20020;-49
2022/03/13 06:26:42;;;;;;;;;;;4.80;99.90;;;;;;4953079;28;19939;-48
2022/03/13 06:29:09;;;;;;;;;;;5.10;99.90;;;;;;4953048;29;20386;-48
2022/03/13 06:31:36;;;;;;;;;;;5.60;99.90;;;;;;4953141;28;20374;-49
2022/03/13 06:34:03;;;;;;;;;;;8.00;99.90;;;;;;4953214;28;19945;-49
2022/03/13 06:36:30;;;;;;;;;;;9.40;99.90;;;;;;4952754;28;20386;-49
2022/03/13 06:38:56;;;;;;;;;;;10.90;99.90;;;;;;4952761;29;19927;-49
2022/03/13 06:41:25;;;;;;;;;;;12.80;99.90;;;;;;4952467;29;19934;-49
2022/03/13 06:43:53;;;;;;;;;;;14.50;97.20;;;;;;4952985;28;19927;-49
2022/03/13 06:46:19;;;;;;;;;;;14.90;96.90;;;;;;4952916;28;19927;-50
2022/03/13 06:48:46;;;;;;;;;;;16.00;94.10;;;;;;4950252;28;19947;-50
2022/03/13 06:51:13;;;;;;;;;;;16.70;92.30;;;;;;4952694;28;20298;-50
2022/03/13 06:53:40;;;;;;;;;;;17.10;90.60;;;;;;4952513;28;19930;-50
2022/03/13 06:56:07;;;;;;;;;;;17.10;90.60;;;;;;4953527;28;20329;-50
2022/03/13 06:58:40;;;;;;;;;;;17.20;90.00;;;;;;4955822;29;19930;-50
2022/03/13 07:01:07;;;;;;;;;;;16.10;88.90;;;;;;4956525;28;20006;-50
2022/03/13 07:03:37;;;;;;;;;;;16.00;90.10;;;;;;4955851;28;19927;-50
2022/03/13 07:06:04;;;;;;;;;;;15.50;90.20;;;;;;4972608;23;20461;-53
2022/03/13 07:08:32;;;;;;;;;;;15.10;91.60;;;;;;4957355;28;19934;-53
2022/03/13 07:10:59;;;;;;;;;;;15.50;91.50;;;;;;4952333;28;20314;-53
2022/03/13 07:13:31;;;;;;;;;;;15.80;90.70;;;;;;4955104;28;19927;-53
2022/03/13 07:16:01;;;;;;;;;;;15.80;90.30;;;;;;4953823;29;20013;-53
2022/03/13 07:18:28;;;;;;;;;;;16.10;90.80;;;;;;4958155;28;19927;-53
2022/03/13 07:20:54;;;;;;;;;;;16.40;89.80;;;;;;4953188;28;19939;-53
2022/03/13 07:23:21;;;;;;;;;;;15.60;90.80;;;;;;4952971;29;19926;-53
2022/03/13 07:25:48;;;;;;;;;;;14.70;91.80;;;;;;4953698;28;20332;-53
2022/03/13 07:28:15;;;;;;;;;;;14.70;92.20;;;;;;4953695;29;20003;-54
2022/03/13 07:30:42;;;;;;;;;;;13.50;93.10;;;;;;4953526;29;20366;-54
2022/03/13 07:33:10;;;;;;;;;;;12.70;94.50;;;;;;4953038;28;20013;-53
2022/03/13 07:35:37;;;;;;;;;;;11.80;95.10;;;;;;4952385;29;19938;-53
2022/03/13 07:38:04;;;;;;;;;;;11.30;95.80;;;;;;4953588;28;20350;-53
2022/03/13 07:40:31;;;;;;;;;;;11.40;95.90;;;;;;4949114;29;19993;-53
2022/03/13 07:42:58;;;;;;;;;;;11.80;95.70;;;;;;4953319;28;19938;-53
2022/03/13 07:45:25;;;;;;;;;;;12.90;94.30;;;;;;4953288;29;19927;-54
2022/03/13 07:47:54;;;;;;;;;;;13.40;93.90;;;;;;4953079;29;20005;-54
2022/03/13 07:50:23;;;;;;;;;;;13.70;94.10;;;;;;4951600;29;20383;-54
2022/03/13 07:52:50;;;;;;;;;;;14.70;92.50;;;;;;4953547;29;20228;-54
2022/03/13 07:55:17;;;;;;;;;;;16.10;90.20;;;;;;4953986;29;20271;-55
2022/03/13 07:57:44;;;;;;;;;;;16.60;89.70;;;;;;4956385;28;19930;-54
2022/03/13 08:00:12;;;;;;;;;;;16.90;86.90;;;;;;4953364;29;19977;-54
2022/03/13 08:02:44;;;;;;;;;;;16.40;87.20;;;;;;4952551;28;19992;-54
2022/03/13 08:05:11;;;;;;;;;;;18.20;82.50;;;;;;4953583;29;19927;-54
2022/03/13 08:07:39;;;;;;;;;;;18.30;82.00;;;;;;4950276;28;20073;-54
2022/03/13 08:10:06;;;;;;;;;;;18.30;81.80;;;;;;4952670;29;19927;-55
2022/03/13 08:12:33;;;;;;;;;;;18.40;80.20;;;;;;4953265;29;20034;-55
2022/03/13 08:15:00;;;;;;;;;;;17.90;79.40;;;;;;4953116;29;20342;-55
2022/03/13 08:17:27;;;;;;;;;;;18.40;80.10;;;;;;4949775;28;19930;-55
2022/03/13 08:19:56;;;;;;;;;;;19.00;79.40;;;;;;4952487;28;19926;-55
2022/03/13 08:22:23;;;;;;;;;;;19.10;79.20;;;;;;4953501;29;19927;-55
2022/03/13 08:24:51;;;;;;;;;;;19.60;76.20;;;;;;4952757;29;19931;-55
2022/03/13 08:27:18;;;;;;;;;;;19.60;77.20;;;;;;4953446;29;19930;-55
2022/03/13 08:29:45;;;;;;;;;;;21.30;74.00;;;;;;4952786;28;20068;-55
2022/03/13 08:32:11;;;;;;;;;;;19.50;75.00;;;;;;4953107;29;20013;-55
2022/03/13 08:34:40;;;;;;;;;;;21.00;72.80;;;;;;4952221;29;20038;-55
2022/03/13 08:37:07;;;;;;;;;;;20.90;73.20;;;;;;4951923;28;19934;-55
2022/03/13 08:39:34;;;;;;;;;;;21.30;71.90;;;;;;4952814;29;19926;-55
2022/03/13 08:42:03;;;;;;;;;;;21.70;71.60;;;;;;4952891;29;19926;-55
2022/03/13 08:44:29;;;;;;;;;;;24.40;65.80;;;;;;4952827;29;19989;-55
2022/03/13 08:46:56;;;;;;;;;;;24.70;65.70;;;;;;4952719;29;19981;-55
2022/03/13 08:49:23;;;;;;;;;;;24.70;65.50;;;;;;4952806;29;20030;-55
2022/03/13 08:51:49;;;;;;;;;;;23.90;64.70;;;;;;4952351;29;19974;-55
2022/03/13 08:54:16;;;;;;;;;;;24.80;62.80;;;;;;4952369;29;19971;-55
2022/03/13 08:56:43;;;;;;;;;;;25.00;63.30;;;;;;4952281;28;20009;-55
2022/03/13 08:59:11;;;;;;;;;;;24.60;63.80;;;;;;4953041;29;20346;-55
2022/03/13 09:01:38;;;;;;;;;;;24.50;63.00;;;;;;4952098;29;19926;-55
2022/03/13 09:04:05;;;;;;;;;;;22.90;65.00;;;;;;4952135;29;19931;-55
2022/03/13 09:06:32;;;;;;;;;;;23.10;63.80;;;;;;4951596;29;19926;-55
2022/03/13 09:08:58;;;;;;;;;;;22.50;65.00;;;;;;4951631;29;19927;-55
2022/03/13 09:11:25;;;;;;;;;;;22.80;64.70;;;;;;4951705;29;20332;-55
2022/03/13 09:13:52;;;;;;;;;;;23.60;64.40;;;;;;4952166;29;20376;-55
2022/03/13 09:16:20;;;;;;;;;;;24.20;61.80;;;;;;4951074;28;20557;-55
2022/03/13 09:18:47;;;;;;;;;;;26.40;59.80;;;;;;4951986;28;20507;-55
2022/03/13 09:21:14;;;;;;;;;;;27.60;57.90;;;;;;4949413;28;19981;-55
2022/03/13 09:23:44;;;;;;;;;;;27.90;56.50;;;;;;4950805;28;20187;-55
2022/03/13 09:26:11;;;;;;;;;;;28.30;55.10;;;;;;4949130;28;19934;-54
2022/03/13 09:28:38;;;;;;;;;;;28.60;55.40;;;;;;4950966;28;19930;-54
2022/03/13 09:31:06;;;;;;;;;;;26.10;54.80;;;;;;4952794;28;20028;-54
2022/03/13 09:33:35;;;;;;;;;;;25.10;56.90;;;;;;4950711;28;20308;-55
2022/03/13 09:36:02;;;;;;;;;;;26.30;56.70;;;;;;4951917;28;19985;-55
2022/03/13 09:38:32;;;;;;;;;;;26.40;56.60;;;;;;4950617;28;19931;-54
2022/03/13 09:41:00;;;;;;;;;;;26.00;55.20;;;;;;4949836;28;20307;-55
2022/03/13 09:43:26;;;;;;;;;;;27.60;54.50;;;;;;4950438;28;19926;-54
2022/03/13 09:45:53;;;;;;;;;;;26.30;54.70;;;;;;4952733;28;19926;-54
2022/03/13 09:48:21;;;;;;;;;;;27.70;54.70;;;;;;4955527;28;19926;-55
2022/03/13 09:50:49;;;;;;;;;;;27.10;53.50;;;;;;4956563;28;19932;-55
2022/03/13 09:53:16;;;;;;;;;;;26.50;55.20;;;;;;4951428;29;19931;-55
2022/03/13 09:55:43;;;;;;;;;;;27.10;54.50;;;;;;4951282;28;19981;-54
2022/03/13 09:58:10;;;;;;;;;;;27.50;54.30;;;;;;4951739;29;19997;-55
2022/03/13 10:00:37;;;;;;;;;;;26.70;55.40;;;;;;4952019;29;19942;-55
2022/03/13 10:03:08;;;;;;;;;;;27.50;55.30;;;;;;4957979;28;19997;-54
2022/03/13 10:05:41;;;;;;;;;;;27.50;54.30;;;;;;4952302;28;20298;-55
2022/03/13 10:08:10;;;;;;;;;;;26.60;55.20;;;;;;4952017;28;19927;-55
2022/03/13 10:10:41;;;;;;;;;;;26.20;55.60;;;;;;4950635;28;20326;-55
2022/03/13 10:13:08;;;;;;;;;;;26.80;55.10;;;;;;4955325;28;20029;-54
2022/03/13 10:15:40;;;;;;;;;;;26.50;55.90;;;;;;4951362;28;19933;-55
2022/03/13 10:18:17;;;;;;;;;;;26.70;55.90;;;;;;4951674;29;19926;-55
2022/03/13 10:20:44;;;;;;;;;;;26.90;54.40;;;;;;4951771;28;20009;-53
2022/03/13 10:23:16;;;;;;;;;;;26.40;55.20;;;;;;4951663;29;19962;-53
2022/03/13 10:25:43;;;;;;;;;;;25.70;55.20;;;;;;4953183;28;19985;-53
2022/03/13 10:28:14;;;;;;;;;;;25.70;55.80;;;;;;4957429;28;20383;-54
2022/03/13 10:30:41;;;;;;;;;;;26.00;53.50;;;;;;4950445;29;20005;-55
2022/03/13 10:33:08;;;;;;;;;;;26.90;54.70;;;;;;4952373;28;20002;-54
2022/03/13 10:35:35;;;;;;;;;;;27.50;53.70;;;;;;4953227;28;20040;-54
2022/03/13 10:38:05;;;;;;;;;;;27.70;53.30;;;;;;4951550;28;19931;-55
2022/03/13 10:40:36;;;;;;;;;;;27.20;55.40;;;;;;4951326;29;19931;-55
2022/03/13 10:43:06;;;;;;;;;;;25.70;56.40;;;;;;4950997;29;19978;-54
2022/03/13 10:45:37;;;;;;;;;;;25.40;56.30;;;;;;4945993;28;19935;-55
2022/03/13 10:48:21;;;;;;;;;;;25.50;55.60;;;;;;4948841;29;20442;-55
2022/03/13 10:50:50;;;;;;;;;;;26.20;52.70;;;;;;4946383;29;19982;-54
2022/03/13 10:53:18;;;;;;;;;;;26.80;54.50;;;;;;4943874;29;19933;-55
2022/03/13 10:55:59;;;;;;;;;;;25.70;56.30;;;;;;4946540;28;20075;-55
2022/03/13 10:58:29;;;;;;;;;;;24.80;57.00;;;;;;4944037;29;19989;-54
2022/03/13 11:01:01;;;;;;;;;;;23.80;58.10;;;;;;4950089;29;20418;-54
2022/03/13 11:03:31;;;;;;;;;;;21.10;61.80;;;;;;4949190;29;20009;-54
2022/03/13 11:05:58;;;;;;;;;;;19.00;67.10;;;;;;4950037;29;20085;-54
2022/03/13 11:08:26;;;;;;;;;;;18.50;70.70;;;;;;4950057;28;19931;-54
2022/03/13 11:10:55;;;;;;;;;;;18.50;69.20;;;;;;4950282;29;20030;-54
2022/03/13 11:13:25;;;;;;;;;;;18.80;67.90;;;;;;4949504;29;19989;-54
2022/03/13 11:15:54;;;;;;;;;;;18.80;70.50;;;;;;4949568;29;20005;-54
2022/03/13 11:18:26;;;;;;;;;;;18.80;68.40;;;;;;4949723;28;20017;-54
2022/03/13 11:20:53;;;;;;;;;;;18.40;68.80;;;;;;4950517;28;19962;-54
2022/03/13 11:23:20;;;;;;;;;;;18.20;69.00;;;;;;4949907;28;19927;-55
2022/03/13 11:25:54;;;;;;;;;;;17.60;70.40;;;;;;4949751;28;20001;-54
2022/03/13 11:28:23;;;;;;;;;;;17.40;71.40;;;;;;4945688;29;19927;-54
2022/03/13 11:30:50;;;;;;;;;;;17.90;71.60;;;;;;4950085;29;19970;-54
2022/03/13 11:33:30;;;;;;;;;;;18.50;70.50;;;;;;4948222;28;19993;-54
2022/03/13 11:36:25;;;;;;;;;;;18.60;70.60;;;;;;4938352;29;19926;-55
2022/03/13 11:38:55;;;;;;;;;;;18.50;70.50;;;;;;4945152;29;19926;-54
2022/03/13 11:41:34;;;;;;;;;;;18.60;67.70;;;;;;4935124;29;19937;-55
2022/03/13 11:44:04;;;;;;;;;;;18.70;70.60;;;;;;4937757;29;19926;-54
2022/03/13 11:46:43;;;;;;;;;;;19.10;71.90;;;;;;4951290;29;20398;-54
2022/03/13 11:49:17;;;;;;;;;;;18.90;65.20;;;;;;4952636;28;19973;-54
2022/03/13 11:51:45;;;;;;;;;;;19.30;63.40;;;;;;4951532;28;20009;-54
2022/03/13 11:54:15;;;;;;;;;;;18.90;63.50;;;;;;4948733;28;19994;-54
2022/03/13 11:56:48;;;;;;;;;;;18.80;63.60;;;;;;4951479;28;20382;-54
2022/03/13 11:59:18;;;;;;;;;;;18.70;58.10;;;;;;4953578;29;19981;-54
2022/03/13 12:01:45;;;;;;;;;;;18.30;60.80;;;;;;4952261;29;19926;-54
2022/03/13 12:04:24;;;;;;;;;;;18.90;60.30;;;;;;4951128;28;19926;-54
2022/03/13 12:06:52;;;;;;;;;;;18.80;58.70;;;;;;4952441;29;19926;-54
2022/03/13 12:09:20;;;;;;;;;;;19.10;58.00;;;;;;4952813;28;20017;-54
2022/03/13 12:11:50;;;;;;;;;;;19.30;59.60;;;;;;4953088;29;19927;-54
2022/03/13 12:14:19;;;;;;;;;;;19.50;59.10;;;;;;4952386;29;19931;-54
2022/03/13 12:16:46;;;;;;;;;;;19.50;59.90;;;;;;4951412;29;19926;-54
2022/03/13 12:19:17;;;;;;;;;;;20.10;61.80;;;;;;4952809;29;20005;-54
2022/03/13 12:21:45;;;;;;;;;;;20.20;61.00;;;;;;4952462;29;19927;-54
2022/03/13 12:24:15;;;;;;;;;;;19.90;57.70;;;;;;4950424;28;19954;-54
2022/03/13 12:26:42;;;;;;;;;;;19.90;57.70;;;;;;4949088;29;19934;-54
2022/03/13 12:29:09;;;;;;;;;;;20.20;58.80;;;;;;4952400;29;20307;-54
2022/03/13 12:31:40;;;;;;;;;;;19.80;55.90;;;;;;4952655;29;19926;-54
2022/03/13 12:34:07;;;;;;;;;;;;;;;;;;4951893;29;20013;-55
2022/03/13 12:36:35;;;;;;;;;;;20.00;60.20;;;;;;4952534;29;19926;-54
2022/03/13 12:39:02;;;;;;;;;;;19.90;56.40;;;;;;4952392;29;20039;-54
2022/03/13 12:41:29;;;;;;;;;;;19.90;66.60;;;;;;4952401;29;20001;-54
2022/03/13 12:43:58;;;;;;;;;;;19.70;68.80;;;;;;4952199;29;20310;-54
2022/03/13 12:46:26;;;;;;;;;;;19.10;70.40;;;;;;4949413;28;19936;-54
2022/03/13 12:48:55;;;;;;;;;;;19.60;70.00;;;;;;4952770;28;20394;-54
2022/03/13 12:51:35;;;;;;;;;;;19.70;59.20;;;;;;4952041;28;19930;-54
2022/03/13 12:54:03;;;;;;;;;;;19.80;53.90;;;;;;4949658;28;19934;-54
2022/03/13 12:56:31;;;;;;;;;;;19.60;59.70;;;;;;4951814;28;19926;-54
2022/03/13 12:58:58;;;;;;;;;;;19.60;56.10;;;;;;4952202;29;19966;-54
2022/03/13 13:01:25;;;;;;;;;;;19.60;58.00;;;;;;4952265;28;19927;-54
2022/03/13 13:03:52;;;;;;;;;;;19.50;55.50;;;;;;4951733;29;20322;-54
2022/03/13 13:06:34;;;;;;;;;;;20.40;52.40;;;;;;4951646;28;20005;-55
2022/03/13 13:09:01;;;;;;;;;;;19.90;49.20;;;;;;4957564;28;20025;-54
2022/03/13 13:11:28;;;;;;;;;;;19.90;50.10;;;;;;4950177;28;19977;-54
2022/03/13 13:13:59;;;;;;;;;;;20.10;53.50;;;;;;4950253;28;19930;-56
2022/03/13 13:16:28;;;;;;;;;;;20.10;51.50;;;;;;4958509;28;20034;-54
2022/03/13 13:18:54;;;;;;;;;;;20.00;51.70;;;;;;4957136;28;19972;-54
2022/03/13 13:21:33;;;;;;;;;;;20.10;51.70;;;;;;4950322;28;20375;-54
2022/03/13 13:24:00;;;;;;;;;;;20.20;51.00;;;;;;4950187;28;19989;-54
2022/03/13 13:26:40;;;;;;;;;;;19.20;50.70;;;;;;4950559;29;19927;-55
2022/03/13 13:29:07;;;;;;;;;;;19.60;49.70;;;;;;4951223;29;20310;-54
2022/03/13 13:31:33;;;;;;;;;;;16.20;51.50;;;;;;4951099;29;19930;-54
2022/03/13 13:34:13;;;;;;;;;;;19.60;57.60;;;;;;4951491;29;19965;-54
2022/03/13 13:36:41;;;;;;;;;;;19.80;55.20;;;;;;4950164;29;20100;-54
2022/03/13 13:39:08;;;;;;;;;;;20.30;54.70;;;;;;4950400;28;19966;-54
2022/03/13 13:41:35;;;;;;;;;;;20.90;54.40;;;;;;4950962;29;20006;-55
2022/03/13 13:44:03;;;;;;;;;;;19.80;51.50;;;;;;4950850;29;19977;-54
2022/03/13 13:46:31;;;;;;;;;;;19.50;52.20;;;;;;4932466;29;19927;-54
2022/03/13 13:48:58;;;;;;;;;;;19.40;53.20;;;;;;4941771;29;20087;-54
2022/03/13 13:51:31;;;;;;;;;;;19.80;53.60;;;;;;4951146;28;19943;-54
2022/03/13 13:54:02;;;;;;;;;;;19.40;53.40;;;;;;4950965;28;20009;-54
2022/03/13 13:56:30;;;;;;;;;;;19.70;54.10;;;;;;4950826;29;20299;-54
2022/03/13 13:58:58;;;;;;;;;;;19.90;55.30;;;;;;4950686;29;19996;-54
2022/03/13 14:01:26;;;;;;;;;;;19.40;53.40;;;;;;4950941;29;19996;-55
2022/03/13 14:03:53;;;;;;;;;;;19.50;52.90;;;;;;4950915;29;20018;-54
2022/03/13 14:06:20;;;;;;;;;;;19.30;53.20;;;;;;4950526;28;19926;-54
2022/03/13 14:08:48;;;;;;;;;;;18.90;56.10;;;;;;4950688;29;19926;-54
2022/03/13 14:11:17;;;;;;;;;;;18.40;54.20;;;;;;4951124;29;19942;-54
2022/03/13 14:13:44;;;;;;;;;;;18.50;55.40;;;;;;4950462;28;20037;-54
2022/03/13 14:16:11;;;;;;;;;;;18.60;54.20;;;;;;4951202;28;19930;-54
2022/03/13 14:18:37;;;;;;;;;;;18.50;54.20;;;;;;4950223;28;19927;-54
2022/03/13 14:21:04;;;;;;;;;;;18.40;55.00;;;;;;4951871;29;20070;-54
2022/03/13 14:23:31;;;;;;;;;;;;;;;;;;4951073;28;19992;-54
2022/03/13 14:25:58;;;;;;;;;;;18.10;55.60;;;;;;4951065;29;19985;-54
2022/03/13 14:28:26;;;;;;;;;;;18.20;55.00;;;;;;4951070;29;19990;-54
2022/03/13 14:30:53;;;;;;;;;;;18.10;55.90;;;;;;4949769;29;19926;-54
2022/03/13 14:33:20;;;;;;;;;;;18.00;55.70;;;;;;4949458;29;19926;-54